地図

経路データ

SID SEASON NUMBER BASIN SUBBASIN NAME ISO_TIME NATURE LAT LON WMO_WIND WMO_PRES WMO_AGENCY TRACK_TYPE DIST2LAND LANDFALL IFLAG USA_AGENCY USA_ATCF_ID USA_LAT USA_LON USA_RECORD USA_STATUS USA_WIND USA_PRES USA_SSHS USA_R34_NE USA_R34_SE USA_R34_SW USA_R34_NW USA_R50_NE USA_R50_SE USA_R50_SW USA_R50_NW USA_R64_NE USA_R64_SE USA_R64_SW USA_R64_NW USA_POCI USA_ROCI USA_RMW USA_EYE TOKYO_LAT TOKYO_LON TOKYO_GRADE TOKYO_WIND TOKYO_PRES TOKYO_R50_DIR TOKYO_R50_LONG TOKYO_R50_SHORT TOKYO_R30_DIR TOKYO_R30_LONG TOKYO_R30_SHORT TOKYO_LAND CMA_LAT CMA_LON CMA_CAT CMA_WIND CMA_PRES HKO_LAT HKO_LON HKO_CAT HKO_WIND HKO_PRES NEWDELHI_LAT NEWDELHI_LON NEWDELHI_GRADE NEWDELHI_WIND NEWDELHI_PRES NEWDELHI_CI NEWDELHI_DP NEWDELHI_POCI REUNION_LAT REUNION_LON REUNION_TYPE REUNION_WIND REUNION_PRES REUNION_TNUM REUNION_CI REUNION_RMW REUNION_R34_NE REUNION_R34_SE REUNION_R34_SW REUNION_R34_NW REUNION_R50_NE REUNION_R50_SE REUNION_R50_SW REUNION_R50_NW REUNION_R64_NE REUNION_R64_SE REUNION_R64_SW REUNION_R64_NW BOM_LAT BOM_LON BOM_TYPE BOM_WIND BOM_PRES BOM_TNUM BOM_CI BOM_RMW BOM_R34_NE BOM_R34_SE BOM_R34_SW BOM_R34_NW BOM_R50_NE BOM_R50_SE BOM_R50_SW BOM_R50_NW BOM_R64_NE BOM_R64_SE BOM_R64_SW BOM_R64_NW BOM_ROCI BOM_POCI BOM_EYE BOM_POS_METHOD BOM_PRES_METHOD NADI_LAT NADI_LON NADI_CAT NADI_WIND NADI_PRES WELLINGTON_LAT WELLINGTON_LON WELLINGTON_WIND WELLINGTON_PRES DS824_LAT DS824_LON DS824_STAGE DS824_WIND DS824_PRES TD9636_LAT TD9636_LON TD9636_STAGE TD9636_WIND TD9636_PRES TD9635_LAT TD9635_LON TD9635_WIND TD9635_PRES TD9635_ROCI NEUMANN_LAT NEUMANN_LON NEUMANN_CLASS NEUMANN_WIND NEUMANN_PRES MLC_LAT MLC_LON MLC_CLASS MLC_WIND MLC_PRES USA_GUST BOM_GUST BOM_GUST_PER REUNION_GUST REUNION_GUST_PER USA_SEAHGT USA_SEARAD_NE USA_SEARAD_SE USA_SEARAD_SW USA_SEARAD_NW STORM_SPEED STORM_DIR
1875355S19065 1876 16 SI MM NOT_NAMED 1875-12-21 06:00:00 NR -18.9000 64.9000 reunion main 759 739 _____O________ -1 -18.9000 64.9000 99 9.90000 4 262
1875355S19065 1876 16 SI MM NOT_NAMED 1875-12-21 09:00:00 NR -18.9251 64.7162 main 739 716 _____P________ -1 -18.9251 64.7162 99 4 262
1875355S19065 1876 16 SI MM NOT_NAMED 1875-12-21 12:00:00 NR -18.9525 64.5225 main 716 695 _____P________ -1 -18.9525 64.5225 99 4 261
1875355S19065 1876 16 SI MM NOT_NAMED 1875-12-21 15:00:00 NR -18.9847 64.3092 main 695 675 _____P________ -1 -18.9847 64.3092 99 4 261
1875355S19065 1876 16 SI MM NOT_NAMED 1875-12-21 18:00:00 NR -19.0242 64.0663 main 675 642 _____P________ -1 -19.0242 64.0663 99 5 260
1875355S19065 1876 16 SI MM NOT_NAMED 1875-12-21 21:00:00 NR -19.0732 63.7839 main 642 611 _____P________ -1 -19.0732 63.7839 99 6 259
1875355S19065 1876 16 SI MM NOT_NAMED 1875-12-22 00:00:00 NR -19.1341 63.4522 main 611 568 _____P________ -1 -19.1341 63.4522 99 7 259
1875355S19065 1876 16 SI MM NOT_NAMED 1875-12-22 03:00:00 NR -19.2090 63.0609 main 568 514 _____P________ -1 -19.2090 63.0609 99 8 258
1875355S19065 1876 16 SI MM NOT_NAMED 1875-12-22 06:00:00 NR -19.3000 62.6000 reunion main 514 460 _____O________ -1 -19.3000 62.6000 99 9.90000 10 258
1875355S19065 1876 16 SI MM NOT_NAMED 1875-12-22 09:00:00 NR -19.4079 62.0639 main 460 397 _____P________ -1 -19.4079 62.0639 99 11 258
1875355S19065 1876 16 SI MM NOT_NAMED 1875-12-22 12:00:00 NR -19.5292 61.4658 main 397 330 _____P________ -1 -19.5292 61.4658 99 12 258
1875355S19065 1876 16 SI MM NOT_NAMED 1875-12-22 15:00:00 NR -19.6593 60.8239 main 320 256 _____P________ -1 -19.6593 60.8239 99 13 258
1875355S19065 1876 16 SI MM NOT_NAMED 1875-12-22 18:00:00 NR -19.7939 60.1564 main 256 183 _____P________ -1 -19.7939 60.1564 99 13 258
1875355S19065 1876 16 SI MM NOT_NAMED 1875-12-22 21:00:00 NR -19.9289 59.4817 main 183 116 _____P________ -1 -19.9289 59.4817 99 13 258
1875355S19065 1876 16 SI MM NOT_NAMED 1875-12-23 00:00:00 NR -20.0606 58.8183 main 106 43 _____P________ -1 -20.0606 58.8183 99 12 258
1875355S19065 1876 16 SI MM NOT_NAMED 1875-12-23 03:00:00 NR -20.1854 58.1849 main 43 0 _____P________ -1 -20.1854 58.1849 99 12 258
1875355S19065 1876 16 SI MM NOT_NAMED 1875-12-23 06:00:00 NR -20.3000 57.6000 reunion main 0 0 _____O________ -1 -20.3000 57.6000 99 9.90000 11 258
1875355S19065 1876 16 SI MM NOT_NAMED 1875-12-23 09:00:00 NR -20.4023 57.0779 main 23 23 _____P________ -1 -20.4023 57.0779 99 9 258
1875355S19065 1876 16 SI MM NOT_NAMED 1875-12-23 12:00:00 NR -20.4934 56.6147 main 72 68 _____P________ -1 -20.4934 56.6147 99 8 258
1875355S19065 1876 16 SI MM NOT_NAMED 1875-12-23 15:00:00 NR -20.5752 56.2020 main 68 49 _____P________ -1 -20.5752 56.2020 99 8 258
1875355S19065 1876 16 SI MM NOT_NAMED 1875-12-23 18:00:00 NR -20.6493 55.8313 main 45 33 _____P________ -1 -20.6493 55.8313 99 7 258
1875355S19065 1876 16 SI MM NOT_NAMED 1875-12-23 21:00:00 NR -20.7174 55.4942 main 33 22 _____P________ -1 -20.7174 55.4942 99 6 258
1875355S19065 1876 16 SI MM NOT_NAMED 1875-12-24 00:00:00 NR -20.7809 55.1823 main 24 24 _____P________ -1 -20.7809 55.1823 99 6 258
1875355S19065 1876 16 SI MM NOT_NAMED 1875-12-24 03:00:00 NR -20.8413 54.8870 main 45 45 _____P________ -1 -20.8413 54.8870 99 6 258
1875355S19065 1876 16 SI MM NOT_NAMED 1875-12-24 06:00:00 NR -20.9000 54.6000 reunion main 66 _____O________ -1 -20.9000 54.6000 99 9.90000 5 258

IBTrACS Databaseについて

本データベースは、米国NOAAが公開する1842年以降の世界の熱帯低気圧のベストトラックデータアーカイブInternational Best Track Archive for Climate Stewardship (IBTrACS)を、ウェブで閲覧しやすい形式に変換したものです。

最終更新日:2021-12-01